Time;durP1;ratioP1;P1;durP2;ratioP2;P2;SDS_P1;SDS_P2;PMS_P1;PMS_P2;Temp;Humidity;BMP_temperature;BMP_pressure;BME280_temperature;BME280_humidity;BME280_pressure;Samples;Min_cycle;Max_cycle;Signal;HPM_P1;HPM_P2
2024/04/10 00:02:08;;;;;;;;;;;;;;;;;;5444991;26;4666;-55
2024/04/10 00:04:34;;;;;;;;;;;;;;;;;;5441964;26;5084;-56
2024/04/10 00:06:59;;;;;;;;;;;;;;;;;;5437128;26;4517;-55
2024/04/10 00:09:24;;;;;;;;;;;;;;;;;;5445352;26;3641;-56
2024/04/10 00:11:50;;;;;;;;;;;;;;;;;;5412481;26;5113;-55
2024/04/10 00:14:15;;;;;;;;;;;;;;;;;;5434133;26;5128;-56
2024/04/10 00:16:40;;;;;;;;;;;;;;;;;;5454943;26;5250;-56
2024/04/10 00:19:06;;;;;;;;;;;;;;;;;;5443316;26;5093;-55
2024/04/10 00:21:33;;;;;;;;;;;;;;;;;;5422940;26;1366;-54
2024/04/10 00:23:58;;;;;;;;;;;;;;;;;;5441018;26;5264;-55
2024/04/10 00:26:24;;;;;;;;;;;;;;;;;;5421629;26;4755;-55
2024/04/10 00:28:50;;;;;;;;;;;;;;;;;;5426608;26;5072;-55
2024/04/10 00:31:15;;;;;;;;;;;;;;;;;;5449614;26;5949;-55
2024/04/10 00:33:40;;;;;;;;;;;;;;;;;;5422741;26;3677;-55
2024/04/10 00:36:07;;;;;;;;;;;;;;;;;;5419011;26;5071;-56
2024/04/10 00:38:33;;;;;;;;;;;;;;;;;;5434950;26;5195;-55
2024/04/10 00:40:59;;;;;;;;;;;;;;;;;;5445727;26;5319;-55
2024/04/10 00:43:25;;;;;;;;;;;;;;;;;;5444908;26;4739;-55
2024/04/10 00:45:55;;;;;;;;;;;;;;;;;;5464859;26;1263;-55
2024/04/10 00:48:20;;;;;;;;;;;;;;;;;;5466615;26;5228;-54
2024/04/10 00:50:45;;;;;;;;;;;;;;;;;;5436590;26;5090;-55
2024/04/10 00:53:11;;;;;;;;;;;;;;;;;;5439694;26;5041;-55
2024/04/10 00:55:36;;;;;;;;;;;;;;;;;;5409780;26;4568;-55
2024/04/10 00:58:01;;;;;;;;;;;;;;;;;;5414297;26;5163;-57
2024/04/10 01:00:28;;;;;;;;;;;;;;;;;;5458495;26;3665;-55
2024/04/10 01:02:53;;;;;;;;;;;;;;;;;;5406559;26;5564;-55
2024/04/10 01:05:19;;;;;;;;;;;;;;;;;;5422821;26;4582;-55
2024/04/10 01:07:44;;;;;;;;;;;;;;;;;;5429935;26;5160;-55
2024/04/10 01:10:09;;;;;;;;;;;;;;;;;;5447115;26;5281;-55
2024/04/10 01:12:38;;;;;;;;;;;;;;;;;;5471163;26;1350;-55
2024/04/10 01:15:04;;;;;;;;;;;;;;;;;;5414147;26;4509;-55
2024/04/10 01:17:29;;;;;;;;;;;;;;;;;;5405538;26;4540;-56
2024/04/10 01:19:54;;;;;;;;;;;;;;;;;;5400384;26;5201;-54
2024/04/10 01:22:20;;;;;;;;;;;;;;;;;;5419604;26;5252;-55
2024/04/10 01:24:45;;;;;;;;;;;;;;;;;;5427200;26;2014;-55
2024/04/10 01:27:11;;;;;;;;;;;;;;;;;;5454177;26;5132;-55
2024/04/10 01:29:36;;;;;;;;;;;;;;;;;;5423939;26;5107;-55
2024/04/10 01:32:01;;;;;;;;;;;;;;;;;;5446322;26;4775;-55
2024/04/10 01:34:27;;;;;;;;;;;;;;;;;;5461725;26;5178;-55
2024/04/10 01:36:52;;;;;;;;;;;;;;;;;;5406502;26;5193;-55
2024/04/10 01:39:17;;;;;;;;;;;;;;;;;;5449887;26;3545;-55
2024/04/10 01:41:43;;;;;;;;;;;;;;;;;;5411055;26;5109;-55
2024/04/10 01:44:08;;;;;;;;;;;;;;;;;;5428247;26;5087;-55
2024/04/10 01:46:33;;;;;;;;;;;;;;;;;;5440132;26;5883;-55
2024/04/10 01:48:59;;;;;;;;;;;;;;;;;;5416053;26;5089;-55
2024/04/10 01:51:24;;;;;;;;;;;;;;;;;;5448765;26;3662;-55
2024/04/10 01:53:50;;;;;;;;;;;;;;;;;;5451817;26;4893;-56
2024/04/10 01:56:15;;;;;;;;;;;;;;;;;;5418063;26;5169;-55
2024/04/10 01:58:40;;;;;;;;;;;;;;;;;;5420615;26;4631;-55
2024/04/10 02:01:06;;;;;;;;;;;;;;;;;;5412226;26;5739;-56
2024/04/10 02:03:31;;;;;;;;;;;;;;;;;;5425540;26;3570;-56
2024/04/10 02:05:56;;;;;;;;;;;;;;;;;;5444557;26;5083;-56
2024/04/10 02:08:22;;;;;;;;;;;;;;;;;;5422072;25;4645;-55
2024/04/10 02:10:47;;;;;;;;;;;;;;;;;;5426661;26;5208;-55
2024/04/10 02:13:13;;;;;;;;;;;;;;;;;;5428238;26;5107;-55
2024/04/10 02:15:38;;;;;;;;;;;;;;;;;;5400424;26;3715;-55
2024/04/10 02:18:04;;;;;;;;;;;;;;;;;;5408401;26;5319;-55
2024/04/10 02:20:30;;;;;;;;;;;;;;;;;;5424590;26;4559;-55
2024/04/10 02:22:55;;;;;;;;;;;;;;;;;;5427738;26;5241;-55
2024/04/10 02:25:20;;;;;;;;;;;;;;;;;;5410249;26;5071;-55
2024/04/10 02:27:46;;;;;;;;;;;;;;;;;;5444337;26;3654;-55
2024/04/10 02:30:11;;;;;;;;;;;;;;;;;;5428135;26;5063;-55
2024/04/10 02:32:36;;;;;;;;;;;;;;;;;;5425104;26;6116;-54
2024/04/10 02:35:02;;;;;;;;;;;;;;;;;;5424974;26;5283;-55
2024/04/10 02:37:27;;;;;;;;;;;;;;;;;;5429197;26;5114;-56
2024/04/10 02:39:52;;;;;;;;;;;;;;;;;;5402012;26;5271;-55
2024/04/10 02:42:18;;;;;;;;;;;;;;;;;;5405928;26;3705;-54
2024/04/10 02:44:51;;;;;;;;;;;;;;;;;;5430207;26;5219;-55
2024/04/10 02:47:16;;;;;;;;;;;;;;;;;;5445619;26;4885;-55
2024/04/10 02:49:41;;;;;;;;;;;;;;;;;;5439601;26;4770;-54
2024/04/10 02:52:07;;;;;;;;;;;;;;;;;;5432299;26;5212;-57
2024/04/10 02:54:32;;;;;;;;;;;;;;;;;;5451455;26;3562;-55
2024/04/10 02:56:57;;;;;;;;;;;;;;;;;;5443981;26;5255;-55
2024/04/10 02:59:23;;;;;;;;;;;;;;;;;;5454024;26;5006;-55
2024/04/10 03:01:51;;;;;;;;;;;;;;;;;;5428308;26;4727;-55
2024/04/10 03:04:16;;;;;;;;;;;;;;;;;;5396866;26;5110;-55
2024/04/10 03:06:42;;;;;;;;;;;;;;;;;;5396269;26;3695;-55
2024/04/10 03:09:08;;;;;;;;;;;;;;;;;;5447491;26;4717;-55
2024/04/10 03:11:33;;;;;;;;;;;;;;;;;;5416969;26;5385;-55
2024/04/10 03:13:59;;;;;;;;;;;;;;;;;;5431968;26;4706;-55
2024/04/10 03:16:24;;;;;;;;;;;;;;;;;;5434115;26;5450;-55
2024/04/10 03:18:49;;;;;;;;;;;;;;;;;;5442810;26;3488;-56
2024/04/10 03:21:15;;;;;;;;;;;;;;;;;;5408383;26;5062;-55
2024/04/10 03:23:40;;;;;;;;;;;;;;;;;;5423545;26;5184;-55
2024/04/10 03:26:06;;;;;;;;;;;;;;;;;;5417807;26;5280;-55
2024/04/10 03:28:33;;;;;;;;;;;;;;;;;;5415349;26;5147;-55
2024/04/10 03:30:59;;;;;;;;;;;;;;;;;;5407102;26;5914;-55
2024/04/10 03:33:26;;;;;;;;;;;;;;;;;;5410183;26;3662;-56
2024/04/10 03:35:51;;;;;;;;;;;;;;;;;;5401794;26;5137;-55
2024/04/10 03:38:16;;;;;;;;;;;;;;;;;;5413666;26;5181;-55
2024/04/10 03:40:42;;;;;;;;;;;;;;;;;;5405978;26;5149;-55
2024/04/10 03:43:08;;;;;;;;;;;;;;;;;;5412790;26;5111;-55
2024/04/10 03:45:34;;;;;;;;;;;;;;;;;;5425412;26;1420;-55
2024/04/10 03:47:59;;;;;;;;;;;;;;;;;;5425214;26;4545;-55
2024/04/10 03:50:24;;;;;;;;;;;;;;;;;;5400251;26;5323;-56
2024/04/10 03:52:50;;;;;;;;;;;;;;;;;;5400460;26;5141;-55
2024/04/10 03:55:15;;;;;;;;;;;;;;;;;;5402535;26;4671;-55
2024/04/10 03:57:40;;;;;;;;;;;;;;;;;;5413799;26;3429;-56
2024/04/10 04:00:07;;;;;;;;;;;;;;;;;;5412609;26;5137;-55
2024/04/10 04:02:34;;;;;;;;;;;;;;;;;;5408977;26;5289;-55
2024/04/10 04:04:59;;;;;;;;;;;;;;;;;;5424914;26;5138;-55
2024/04/10 04:07:25;;;;;;;;;;;;;;;;;;5427583;26;5028;-55
2024/04/10 04:09:51;;;;;;;;;;;;;;;;;;5415438;26;3481;-55
2024/04/10 04:12:16;;;;;;;;;;;;;;;;;;5415114;26;5064;-55
2024/04/10 04:14:42;;;;;;;;;;;;;;;;;;5428651;26;4508;-55
2024/04/10 04:17:07;;;;;;;;;;;;;;;;;;5424251;26;5279;-56
2024/04/10 04:19:32;;;;;;;;;;;;;;;;;;5423572;26;4806;-55
2024/04/10 04:21:58;;;;;;;;;;;;;;;;;;5412231;26;5234;-55
2024/04/10 04:24:24;;;;;;;;;;;;;;;;;;5416184;26;3320;-55
2024/04/10 04:26:50;;;;;;;;;;;;;;;;;;5407998;26;5105;-55
2024/04/10 04:29:16;;;;;;;;;;;;;;;;;;5408323;26;5168;-55
2024/04/10 04:31:41;;;;;;;;;;;;;;;;;;5421874;26;5163;-55
2024/04/10 04:34:12;;;;;;;;;;;;;;;;;;5421818;26;4534;-55
2024/04/10 04:36:39;;;;;;;;;;;;;;;;;;5419426;26;1599;-55
2024/04/10 04:39:04;;;;;;;;;;;;;;;;;;5418595;26;5096;-54
2024/04/10 04:41:30;;;;;;;;;;;;;;;;;;5411881;26;4999;-55
2024/04/10 04:43:55;;;;;;;;;;;;;;;;;;5394679;26;5262;-55
2024/04/10 04:46:21;;;;;;;;;;;;;;;;;;5417451;26;5190;-55
2024/04/10 04:48:46;;;;;;;;;;;;;;;;;;5422412;26;1336;-55
2024/04/10 04:51:11;;;;;;;;;;;;;;;;;;5419693;26;5095;-55
2024/04/10 04:53:37;;;;;;;;;;;;;;;;;;5403544;26;4563;-55
2024/04/10 04:56:02;;;;;;;;;;;;;;;;;;5420873;26;4596;-55
2024/04/10 04:58:28;;;;;;;;;;;;;;;;;;5416740;26;5100;-55
2024/04/10 05:00:53;;;;;;;;;;;;;;;;;;5409496;26;5303;-55
2024/04/10 05:06:06;;;;;;;;;;;;;;;;;;5435450;26;4518;-55
2024/04/10 05:08:32;;;;;;;;;;;;;;;;;;5413263;26;4716;-55
2024/04/10 05:10:57;;;;;;;;;;;;;;;;;;5427878;26;4827;-56
2024/04/10 05:13:23;;;;;;;;;;;;;;;;;;5411079;26;5341;-54
2024/04/10 05:15:55;;;;;;;;;;;;;;;;;;5400463;26;3711;-55
2024/04/10 05:18:20;;;;;;;;;;;;;;;;;;5410833;26;4680;-55
2024/04/10 05:22:13;;;;;;;;;;;;;;;;;;5518343;25;5245;-58
2024/04/10 05:24:39;;;;;;;;;;;;;;;;;;5451733;26;3431;-57
2024/04/10 05:27:05;;;;;;;;;;;;;;;;;;5449338;26;5088;-57
2024/04/10 05:29:30;;;;;;;;;;;;;;;;;;5422195;26;5203;-57
2024/04/10 05:31:57;;;;;;;;;;;;;;;;;;5413233;26;5211;-57
2024/04/10 05:34:22;;;;;;;;;;;;;;;;;;5420968;26;5078;-57
2024/04/10 05:36:49;;;;;;;;;;;;;;;;;;5441591;26;3482;-61
2024/04/10 05:39:24;;;;;;;;;;;;;;;;;;5438061;26;4465;-57
2024/04/10 05:41:49;;;;;;;;;;;;;;;;;;5446595;26;4710;-57
2024/04/10 05:44:14;;;;;;;;;;;;;;;;;;5447397;26;5333;-57
2024/04/10 05:46:40;;;;;;;;;;;;;;;;;;5452873;26;5229;-58
2024/04/10 05:49:09;;;;;;;;;;;;;;;;;;5443334;26;5083;-57
2024/04/10 05:51:35;;;;;;;;;;;;;;;;;;5437762;26;3389;-58
2024/04/10 05:54:00;;;;;;;;;;;;;;;;;;5444686;26;4605;-58
2024/04/10 05:56:25;;;;;;;;;;;;;;;;;;5437348;26;5157;-58
2024/04/10 05:58:51;;;;;;;;;;;;;;;;;;5431636;26;5367;-58
2024/04/10 06:01:16;;;;;;;;;;;;;;;;;;5446377;26;5477;-58
2024/04/10 06:03:44;;;;;;;;;;;;;;;;;;5451269;26;3260;-58
2024/04/10 06:06:12;;;;;;;;;;;;;;;;;;5439856;26;4585;-57
2024/04/10 06:08:38;;;;;;;;;;;;;;;;;;5438755;26;4548;-58
2024/04/10 06:11:03;;;;;;;;;;;;;;;;;;5440456;26;5229;-58
2024/04/10 06:13:29;;;;;;;;;;;;;;;;;;5442241;26;4612;-58
2024/04/10 06:16:00;;;;;;;;;;;;;;;;;;5433759;26;4685;-58
2024/04/10 06:18:25;;;;;;;;;;;;;;;;;;5431510;26;3562;-58
2024/04/10 06:20:57;;;;;;;;;;;;;;;;;;5447333;26;5277;-58
2024/04/10 06:23:24;;;;;;;;;;;;;;;;;;5454378;26;4720;-58
2024/04/10 06:25:52;;;;;;;;;;;;;;;;;;5435414;26;5032;-58
2024/04/10 06:28:17;;;;;;;;;;;;;;;;;;5437309;26;4568;-58
2024/04/10 06:30:43;;;;;;;;;;;;;;;;;;5417953;26;3605;-58
2024/04/10 06:33:09;;;;;;;;;;;;;;;;;;5384437;26;4482;-58
2024/04/10 06:35:34;;;;;;;;;;;;;;;;;;5390588;26;5160;-58
2024/04/10 06:37:59;;;;;;;;;;;;;;;;;;5381484;26;5121;-58
2024/04/10 06:40:25;;;;;;;;;;;;;;;;;;5398747;26;5250;-58
2024/04/10 06:42:50;;;;;;;;;;;;;;;;;;5395988;26;3559;-58
2024/04/10 06:45:16;;;;;;;;;;;;;;;;;;5430977;26;4510;-58
2024/04/10 06:47:42;;;;;;;;;;;;;;;;;;5413630;26;5478;-58
2024/04/10 06:50:09;;;;;;;;;;;;;;;;;;5418053;26;5218;-58
2024/04/10 06:52:35;;;;;;;;;;;;;;;;;;5416780;26;4595;-58
2024/04/10 06:55:01;;;;;;;;;;;;;;;;;;5420278;26;5705;-58
2024/04/10 06:57:26;;;;;;;;;;;;;;;;;;5428538;26;3550;-57
2024/04/10 06:59:51;;;;;;;;;;;;;;;;;;5436770;26;4455;-58
2024/04/10 07:02:17;;;;;;;;;;;;;;;;;;5434512;26;5181;-58
2024/04/10 07:04:45;;;;;;;;;;;;;;;;;;5425949;26;5067;-57
2024/04/10 07:07:10;;;;;;;;;;;;;;;;;;5414454;26;5230;-58
2024/04/10 07:09:36;;;;;;;;;;;;;;;;;;5380514;26;1366;-58
2024/04/10 07:12:01;;;;;;;;;;;;;;;;;;5386922;26;4953;-57
2024/04/10 07:14:28;;;;;;;;;;;;;;;;;;5379274;26;5181;-57
2024/04/10 07:16:53;;;;;;;;;;;;;;;;;;5390282;26;4638;-57
2024/04/10 07:19:19;;;;;;;;;;;;;;;;;;5383594;26;5350;-57
2024/04/10 07:21:44;;;;;;;;;;;;;;;;;;5385944;26;1860;-58
2024/04/10 07:24:09;;;;;;;;;;;;;;;;;;5391755;26;5052;-58
2024/04/10 07:26:35;;;;;;;;;;;;;;;;;;5399787;26;5139;-58
2024/04/10 07:29:01;;;;;;;;;;;;;;;;;;5402440;26;5129;-58
2024/04/10 07:31:31;;;;;;;;;;;;;;;;;;5398848;26;4741;-59
2024/04/10 07:33:57;;;;;;;;;;;;;;;;;;5402698;26;5165;-58
2024/04/10 07:36:22;;;;;;;;;;;;;;;;;;5382433;26;1550;-58
2024/04/10 07:38:48;;;;;;;;;;;;;;;;;;5387209;26;4566;-58
2024/04/10 07:41:14;;;;;;;;;;;;;;;;;;5392001;26;4700;-58
2024/04/10 07:43:39;;;;;;;;;;;;;;;;;;5402441;26;5177;-58
2024/04/10 07:46:05;;;;;;;;;;;;;;;;;;5401493;26;5170;-57
2024/04/10 07:48:31;;;;;;;;;;;;;;;;;;5387565;26;3618;-58
2024/04/10 07:50:56;;;;;;;;;;;;;;;;;;5380078;26;4555;-58
2024/04/10 07:53:21;;;;;;;;;;;;;;;;;;5374324;26;5113;-58
2024/04/10 07:55:47;;;;;;;;;;;;;;;;;;5391250;26;5261;-58
2024/04/10 07:58:12;;;;;;;;;;;;;;;;;;5388603;26;5112;-58
2024/04/10 08:00:37;;;;;;;;;;;;;;;;;;5402018;26;1849;-58
2024/04/10 08:03:03;;;;;;;;;;;;;;;;;;5403376;26;4643;-58
2024/04/10 08:05:29;;;;;;;;;;;;;;;;;;5407703;26;5269;-58
2024/04/10 08:07:56;;;;;;;;;;;;;;;;;;5405589;26;4605;-57
2024/04/10 08:10:21;;;;;;;;;;;;;;;;;;5377641;26;4635;-58
2024/04/10 08:12:47;;;;;;;;;;;;;;;;;;5374886;26;3546;-58
2024/04/10 08:15:12;;;;;;;;;;;;;;;;;;5431041;26;4577;-58
2024/04/10 08:17:40;;;;;;;;;;;;;;;;;;5426626;26;4568;-58
2024/04/10 08:20:05;;;;;;;;;;;;;;;;;;5419303;26;5145;-58
2024/04/10 08:22:31;;;;;;;;;;;;;;;;;;5418845;26;5162;-58
2024/04/10 08:24:56;;;;;;;;;;;;;;;;;;5422911;26;4622;-57
2024/04/10 08:27:21;;;;;;;;;;;;;;;;;;5425194;26;3437;-58
2024/04/10 08:29:47;;;;;;;;;;;;;;;;;;5416856;26;5081;-58
2024/04/10 08:32:13;;;;;;;;;;;;;;;;;;5424561;26;4606;-58
2024/04/10 08:34:38;;;;;;;;;;;;;;;;;;5434617;26;5660;-58
2024/04/10 08:37:03;;;;;;;;;;;;;;;;;;5419875;26;5113;-58
2024/04/10 08:39:29;;;;;;;;;;;;;;;;;;5422664;26;1429;-58
2024/04/10 08:41:54;;;;;;;;;;;;;;;;;;5422194;26;5439;-58
2024/04/10 08:44:20;;;;;;;;;;;;;;;;;;5416720;26;5074;-58
2024/04/10 08:46:45;;;;;;;;;;;;;;;;;;5425594;26;5093;-58
2024/04/10 08:49:10;;;;;;;;;;;;;;;;;;5433198;26;4543;-58
2024/04/10 08:51:36;;;;;;;;;;;;;;;;;;5412280;26;3643;-58
2024/04/10 08:54:01;;;;;;;;;;;;;;;;;;5426571;26;5066;-58
2024/04/10 08:56:26;;;;;;;;;;;;;;;;;;5417960;26;4685;-58
2024/04/10 08:58:55;;;;;;;;;;;;;;;;;;5409177;26;4647;-58
2024/04/10 09:01:27;;;;;;;;;;;;;;;;;;5428615;26;4689;-58
2024/04/10 09:03:52;;;;;;;;;;;;;;;;;;5417412;26;5126;-57
2024/04/10 09:06:18;;;;;;;;;;;;;;;;;;5396606;26;2754;-58
2024/04/10 09:08:44;;;;;;;;;;;;;;;;;;5381348;26;5147;-58
2024/04/10 09:11:09;;;;;;;;;;;;;;;;;;5404410;26;4710;-58
2024/04/10 09:13:34;;;;;;;;;;;;;;;;;;5403921;26;5167;-58
2024/04/10 09:16:00;;;;;;;;;;;;;;;;;;5408039;26;5206;-57
2024/04/10 09:18:26;;;;;;;;;;;;;;;;;;5386292;26;2555;-58
2024/04/10 09:21:12;;;;;;;;;;;;;;;;;;5428475;26;4512;-58
2024/04/10 09:23:37;;;;;;;;;;;;;;;;;;5424123;26;5081;-58
2024/04/10 09:26:04;;;;;;;;;;;;;;;;;;5398879;26;5074;-58
2024/04/10 09:28:29;;;;;;;;;;;;;;;;;;5383017;26;5151;-58
2024/04/10 09:30:58;;;;;;;;;;;;;;;;;;5383348;26;5231;-58
2024/04/10 09:33:25;;;;;;;;;;;;;;;;;;5402892;26;1279;-57
2024/04/10 09:35:50;;;;;;;;;;;;;;;;;;5384124;26;5076;-58
2024/04/10 09:38:15;;;;;;;;;;;;;;;;;;5374461;26;5148;-57
2024/04/10 09:40:41;;;;;;;;;;;;;;;;;;5383378;26;5249;-58
2024/04/10 09:43:13;;;;;;;;;;;;;;;;;;5401977;26;5120;-58
2024/04/10 09:45:39;;;;;;;;;;;;;;;;;;5391797;26;2297;-58
2024/04/10 09:48:05;;;;;;;;;;;;;;;;;;5391016;26;5637;-58
2024/04/10 09:50:33;;;;;;;;;;;;;;;;;;5392843;26;5075;-58
2024/04/10 09:52:58;;;;;;;;;;;;;;;;;;5387999;26;4710;-58
2024/04/10 09:55:23;;;;;;;;;;;;;;;;;;5399897;26;5228;-58
2024/04/10 09:57:49;;;;;;;;;;;;;;;;;;5382322;26;3199;-58
2024/04/10 10:00:14;;;;;;;;;;;;;;;;;;5380403;26;4498;-58
2024/04/10 10:02:40;;;;;;;;;;;;;;;;;;5409077;26;4621;-58
2024/04/10 10:05:06;;;;;;;;;;;;;;;;;;5419080;26;5073;-58
2024/04/10 10:07:32;;;;;;;;;;;;;;;;;;5431823;26;4686;-58
2024/04/10 10:10:04;;;;;;;;;;;;;;;;;;5430932;26;4601;-58
2024/04/10 10:12:29;;;;;;;;;;;;;;;;;;5425860;26;3324;-58
2024/04/10 10:15:05;;;;;;;;;;;;;;;;;;5434866;26;5020;-58
2024/04/10 10:17:30;;;;;;;;;;;;;;;;;;5423346;26;5087;-58
2024/04/10 10:19:55;;;;;;;;;;;;;;;;;;5429876;26;4533;-58
2024/04/10 10:22:21;;;;;;;;;;;;;;;;;;5418594;26;5247;-58
2024/04/10 10:24:55;;;;;;;;;;;;;;;;;;5439064;26;1299;-58
2024/04/10 10:27:22;;;;;;;;;;;;;;;;;;5431167;26;6549;-58
2024/04/10 10:29:47;;;;;;;;;;;;;;;;;;5429928;26;5036;-58
2024/04/10 10:32:12;;;;;;;;;;;;;;;;;;5425988;26;4581;-58
2024/04/10 10:34:38;;;;;;;;;;;;;;;;;;5432872;26;4721;-58
2024/04/10 10:37:06;;;;;;;;;;;;;;;;;;5430637;26;5036;-58
2024/04/10 10:39:40;;;;;;;;;;;;;;;;;;5428612;26;3526;-58
2024/04/10 10:42:06;;;;;;;;;;;;;;;;;;5389122;26;4825;-58
2024/04/10 10:44:31;;;;;;;;;;;;;;;;;;5391522;26;5104;-58
2024/04/10 10:46:59;;;;;;;;;;;;;;;;;;5394177;26;5207;-58
2024/04/10 10:49:26;;;;;;;;;;;;;;;;;;5391758;26;4538;-58
2024/04/10 10:51:54;;;;;;;;;;;;;;;;;;5374078;26;1304;-58
2024/04/10 10:54:20;;;;;;;;;;;;;;;;;;5375324;26;4555;-58
2024/04/10 10:56:45;;;;;;;;;;;;;;;;;;5375829;26;5123;-58
2024/04/10 10:59:11;;;;;;;;;;;;;;;;;;5394945;26;5203;-58
2024/04/10 11:01:37;;;;;;;;;;;;;;;;;;5396877;26;4622;-58
2024/04/10 11:04:14;;;;;;;;;;;;;;;;;;5399707;26;5104;-58
2024/04/10 11:06:40;;;;;;;;;;;;;;;;;;5399365;26;1545;-58
2024/04/10 11:09:06;;;;;;;;;;;;;;;;;;5396788;26;5234;-58
2024/04/10 11:11:31;;;;;;;;;;;;;;;;;;5384530;26;5273;-58
2024/04/10 11:13:57;;;;;;;;;;;;;;;;;;5375733;26;5338;-58
2024/04/10 11:16:28;;;;;;;;;;;;;;;;;;5394486;26;5260;-58
2024/04/10 11:18:54;;;;;;;;;;;;;;;;;;5423247;26;5152;-57
2024/04/10 11:21:20;;;;;;;;;;;;;;;;;;5435107;26;2082;-58
2024/04/10 11:23:45;;;;;;;;;;;;;;;;;;5412411;26;4932;-58
2024/04/10 11:26:11;;;;;;;;;;;;;;;;;;5425869;26;5130;-58
2024/04/10 11:28:36;;;;;;;;;;;;;;;;;;5419520;26;5155;-58
2024/04/10 11:31:02;;;;;;;;;;;;;;;;;;5434274;26;5358;-57
2024/04/10 11:33:27;;;;;;;;;;;;;;;;;;5432840;26;1558;-58
2024/04/10 11:35:52;;;;;;;;;;;;;;;;;;5438991;26;4485;-58
2024/04/10 11:38:18;;;;;;;;;;;;;;;;;;5429327;26;5186;-58
2024/04/10 11:40:43;;;;;;;;;;;;;;;;;;5441071;26;5155;-58
2024/04/10 11:43:08;;;;;;;;;;;;;;;;;;5440878;26;4623;-58
2024/04/10 11:45:34;;;;;;;;;;;;;;;;;;5427681;26;1375;-58
2024/04/10 11:48:00;;;;;;;;;;;;;;;;;;5432050;26;4513;-58
2024/04/10 11:50:25;;;;;;;;;;;;;;;;;;5402953;26;5084;-58
2024/04/10 11:52:50;;;;;;;;;;;;;;;;;;5401810;26;5774;-58
2024/04/10 11:55:16;;;;;;;;;;;;;;;;;;5391888;26;5355;-58
2024/04/10 11:57:41;;;;;;;;;;;;;;;;;;5386272;26;3579;-58
2024/04/10 12:00:09;;;;;;;;;;;;;;;;;;5387473;26;5263;-58
2024/04/10 12:02:34;;;;;;;;;;;;;;;;;;5396801;26;4507;-58
2024/04/10 12:05:01;;;;;;;;;;;;;;;;;;5390189;26;5140;-58
2024/04/10 12:07:26;;;;;;;;;;;;;;;;;;5402741;26;5089;-58
2024/04/10 12:09:52;;;;;;;;;;;;;;;;;;5392905;26;2663;-58
2024/04/10 12:12:17;;;;;;;;;;;;;;;;;;5385464;26;5171;-58
2024/04/10 12:14:43;;;;;;;;;;;;;;;;;;5381039;26;5038;-58
2024/04/10 12:17:09;;;;;;;;;;;;;;;;;;5382823;26;5096;-58
2024/04/10 12:19:34;;;;;;;;;;;;;;;;;;5383235;26;4673;-58
2024/04/10 12:21:59;;;;;;;;;;;;;;;;;;5389031;26;4601;-58
2024/04/10 12:24:25;;;;;;;;;;;;;;;;;;5388626;26;1279;-58
2024/04/10 12:26:50;;;;;;;;;;;;;;;;;;5388263;26;5073;-57
2024/04/10 12:29:15;;;;;;;;;;;;;;;;;;5391353;26;4688;-58
2024/04/10 12:31:41;;;;;;;;;;;;;;;;;;5384763;26;5073;-58
2024/04/10 12:34:07;;;;;;;;;;;;;;;;;;5399408;26;5322;-58
2024/04/10 12:39:17;;;;;;;;;;;;;;;;;;5412015;26;4511;-58
2024/04/10 12:41:51;;;;;;;;;;;;;;;;;;5427539;26;5103;-57
2024/04/10 12:44:20;;;;;;;;;;;;;;;;;;5427248;26;5180;-57
2024/04/10 12:46:48;;;;;;;;;;;;;;;;;;5432283;26;5174;-58
2024/04/10 12:49:14;;;;;;;;;;;;;;;;;;5424983;26;4572;-57
2024/04/10 12:51:39;;;;;;;;;;;;;;;;;;5406539;26;2564;-57
2024/04/10 12:54:04;;;;;;;;;;;;;;;;;;5428765;26;5200;-57
2024/04/10 12:56:30;;;;;;;;;;;;;;;;;;5422672;26;5103;-58
2024/04/10 12:58:55;;;;;;;;;;;;;;;;;;5423161;26;4758;-58
2024/04/10 13:01:21;;;;;;;;;;;;;;;;;;5425912;26;5203;-57
2024/04/10 13:03:46;;;;;;;;;;;;;;;;;;5418739;26;1355;-58
2024/04/10 13:06:11;;;;;;;;;;;;;;;;;;5420781;26;4552;-57
2024/04/10 13:08:37;;;;;;;;;;;;;;;;;;5423519;26;5170;-57
2024/04/10 13:11:06;;;;;;;;;;;;;;;;;;5416603;26;5092;-57
2024/04/10 13:13:31;;;;;;;;;;;;;;;;;;5414355;26;5346;-57
2024/04/10 13:15:58;;;;;;;;;;;;;;;;;;5425150;26;5126;-57
2024/04/10 13:18:23;;;;;;;;;;;;;;;;;;5423588;26;1355;-58
2024/04/10 13:20:55;;;;;;;;;;;;;;;;;;5415847;26;4532;-57
2024/04/10 13:23:20;;;;;;;;;;;;;;;;;;5421430;26;4539;-57
2024/04/10 13:25:45;;;;;;;;;;;;;;;;;;5434923;26;5144;-58
2024/04/10 13:28:11;;;;;;;;;;;;;;;;;;5427659;26;5156;-57
2024/04/10 13:30:36;;;;;;;;;;;;;;;;;;5436180;26;1300;-57
2024/04/10 13:33:02;;;;;;;;;;;;;;;;;;5422831;26;4548;-58
2024/04/10 13:35:27;;;;;;;;;;;;;;;;;;5395835;26;4714;-57
2024/04/10 13:37:53;;;;;;;;;;;;;;;;;;5395040;26;5309;-57
2024/04/10 13:40:18;;;;;;;;;;;;;;;;;;5386400;26;5135;-57
2024/04/10 13:42:43;;;;;;;;;;;;;;;;;;5377482;26;1369;-57
2024/04/10 13:45:10;;;;;;;;;;;;;;;;;;5384326;26;4998;-57
2024/04/10 13:47:35;;;;;;;;;;;;;;;;;;5399488;26;5039;-58
2024/04/10 13:50:00;;;;;;;;;;;;;;;;;;5378787;26;5090;-57
2024/04/10 13:52:27;;;;;;;;;;;;;;;;;;5386386;26;4578;-57
2024/04/10 13:54:52;;;;;;;;;;;;;;;;;;5394009;26;5191;-57
2024/04/10 13:57:17;;;;;;;;;;;;;;;;;;5379228;26;3566;-58
2024/04/10 13:59:45;;;;;;;;;;;;;;;;;;5407927;26;4725;-57
2024/04/10 14:02:10;;;;;;;;;;;;;;;;;;5388459;26;5172;-57
2024/04/10 14:04:36;;;;;;;;;;;;;;;;;;5387329;26;5285;-57
2024/04/10 14:07:01;;;;;;;;;;;;;;;;;;5378421;26;5170;-57
2024/04/10 14:09:26;;;;;;;;;;;;;;;;;;5397494;26;3813;-57
2024/04/10 14:11:52;;;;;;;;;;;;;;;;;;5387657;26;4661;-57
2024/04/10 14:14:17;;;;;;;;;;;;;;;;;;5377559;26;4537;-58
2024/04/10 14:16:47;;;;;;;;;;;;;;;;;;5391802;26;4650;-57
2024/04/10 14:19:12;;;;;;;;;;;;;;;;;;5386344;26;4593;-57
2024/04/10 14:21:38;;;;;;;;;;;;;;;;;;5389274;26;3428;-57
2024/04/10 14:24:04;;;;;;;;;;;;;;;;;;5390108;26;4504;-56
2024/04/10 14:26:30;;;;;;;;;;;;;;;;;;5419557;26;4695;-57
2024/04/10 14:28:55;;;;;;;;;;;;;;;;;;5420618;26;5154;-57
2024/04/10 14:31:20;;;;;;;;;;;;;;;;;;5424916;26;4608;-57
2024/04/10 14:33:47;;;;;;;;;;;;;;;;;;5418096;26;3371;-58
2024/04/10 14:36:12;;;;;;;;;;;;;;;;;;5433877;26;5065;-58
2024/04/10 14:38:37;;;;;;;;;;;;;;;;;;5431515;26;5056;-58
2024/04/10 14:41:03;;;;;;;;;;;;;;;;;;5423273;26;5222;-58
2024/04/10 14:43:28;;;;;;;;;;;;;;;;;;5431190;26;5272;-58
2024/04/10 14:45:54;;;;;;;;;;;;;;;;;;5423308;26;5159;-57
2024/04/10 14:48:19;;;;;;;;;;;;;;;;;;5425529;26;3418;-58
2024/04/10 14:51:03;;;;;;;;;;;;;;;;;;5385304;26;4544;-60
2024/04/10 14:53:28;;;;;;;;;;;;;;;;;;5382973;26;5239;-62
2024/04/10 14:56:00;;;;;;;;;;;;;;;;;;5400699;26;4727;-61
2024/04/10 14:58:25;;;;;;;;;;;;;;;;;;5390565;26;5220;-60
2024/04/10 15:00:50;;;;;;;;;;;;;;;;;;5386930;26;3828;-60
2024/04/10 15:03:16;;;;;;;;;;;;;;;;;;5377742;26;4481;-59
2024/04/10 15:05:41;;;;;;;;;;;;;;;;;;5390611;26;5121;-61
2024/04/10 15:08:06;;;;;;;;;;;;;;;;;;5381007;26;5330;-61
2024/04/10 15:10:38;;;;;;;;;;;;;;;;;;5373504;26;5047;-59
2024/04/10 15:13:04;;;;;;;;;;;;;;;;;;5404423;26;5129;-62
2024/04/10 15:15:29;;;;;;;;;;;;;;;;;;5376647;26;1251;-62
2024/04/10 15:17:54;;;;;;;;;;;;;;;;;;5393093;26;5172;-61
2024/04/10 15:20:20;;;;;;;;;;;;;;;;;;5398960;26;5008;-61
2024/04/10 15:22:46;;;;;;;;;;;;;;;;;;5394542;26;4580;-62
2024/04/10 15:25:12;;;;;;;;;;;;;;;;;;5397287;26;5429;-60
2024/04/10 15:27:39;;;;;;;;;;;;;;;;;;5390247;26;3559;-63
2024/04/10 15:30:05;;;;;;;;;;;;;;;;;;5385007;26;4977;-62
2024/04/10 15:32:31;;;;;;;;;;;;;;;;;;5391838;26;4740;-61
2024/04/10 15:34:56;;;;;;;;;;;;;;;;;;5388765;26;5063;-73
2024/04/10 15:37:22;;;;;;;;;;;;;;;;;;5382605;26;5067;-66
2024/04/10 15:39:48;;;;;;;;;;;;;;;;;;5383589;26;2620;-73
2024/04/10 15:42:13;;;;;;;;;;;;;;;;;;5392282;26;4467;-66
2024/04/10 15:44:39;;;;;;;;;;;;;;;;;;5397696;26;4669;-69
2024/04/10 15:47:04;;;;;;;;;;;;;;;;;;5403349;26;5383;-68
2024/04/10 15:49:29;;;;;;;;;;;;;;;;;;5388315;26;5072;-68
2024/04/10 15:51:55;;;;;;;;;;;;;;;;;;5379348;26;4766;-71
2024/04/10 15:54:20;;;;;;;;;;;;;;;;;;5379583;26;3572;-69
2024/04/10 15:56:46;;;;;;;;;;;;;;;;;;5411034;26;5183;-70
2024/04/10 15:59:11;;;;;;;;;;;;;;;;;;5425456;26;5106;-69
2024/04/10 16:01:37;;;;;;;;;;;;;;;;;;5428462;26;4720;-70
2024/04/10 16:04:02;;;;;;;;;;;;;;;;;;5435932;26;5125;-69
2024/04/10 16:06:27;;;;;;;;;;;;;;;;;;5421925;26;3580;-72
2024/04/10 16:08:53;;;;;;;;;;;;;;;;;;5417163;26;4524;-67
2024/04/10 16:11:22;;;;;;;;;;;;;;;;;;5419799;26;4824;-67
2024/04/10 16:13:48;;;;;;;;;;;;;;;;;;5430073;26;4566;-62
2024/04/10 16:16:15;;;;;;;;;;;;;;;;;;5411332;26;5307;-65
2024/04/10 16:18:42;;;;;;;;;;;;;;;;;;5427104;26;3518;-62
2024/04/10 16:21:07;;;;;;;;;;;;;;;;;;5436000;26;5045;-62
2024/04/10 16:23:33;;;;;;;;;;;;;;;;;;5428913;26;5152;-68
2024/04/10 16:26:08;;;;;;;;;;;;;;;;;;5422761;26;4978;-62
2024/04/10 16:28:33;;;;;;;;;;;;;;;;;;5382556;26;5253;-64
2024/04/10 16:30:59;;;;;;;;;;;;;;;;;;5401899;26;4604;-63
2024/04/10 16:33:24;;;;;;;;;;;;;;;;;;5400207;26;1748;-66
2024/04/10 16:35:49;;;;;;;;;;;;;;;;;;5393368;26;5037;-65
2024/04/10 16:38:15;;;;;;;;;;;;;;;;;;5382395;26;5257;-64
2024/04/10 16:40:40;;;;;;;;;;;;;;;;;;5401012;26;5221;-63
2024/04/10 16:43:06;;;;;;;;;;;;;;;;;;5388790;26;5386;-60
2024/04/10 16:45:31;;;;;;;;;;;;;;;;;;5390486;26;3650;-57
2024/04/10 16:47:57;;;;;;;;;;;;;;;;;;5406228;26;4642;-57
2024/04/10 16:50:23;;;;;;;;;;;;;;;;;;5386626;26;5135;-57
2024/04/10 16:52:49;;;;;;;;;;;;;;;;;;5378247;26;4590;-57
2024/04/10 16:55:15;;;;;;;;;;;;;;;;;;5391181;26;5140;-57
2024/04/10 16:57:40;;;;;;;;;;;;;;;;;;5391234;26;3648;-59
2024/04/10 17:00:06;;;;;;;;;;;;;;;;;;5392193;26;5213;-59
2024/04/10 17:02:31;;;;;;;;;;;;;;;;;;5384739;26;4533;-60